createdAt,value
2022-07-25T00:01:45.425Z,9.70
2022-07-25T00:03:48.116Z,7.50
2022-07-25T00:05:50.264Z,10.90
2022-07-25T00:07:51.925Z,11.80
2022-07-25T00:09:54.170Z,9.30
2022-07-25T00:11:55.842Z,10.80
2022-07-25T00:13:57.672Z,6.80
2022-07-25T00:19:37.414Z,7.50
2022-07-25T00:21:39.097Z,13.20
2022-07-25T00:23:42.920Z,9.50
2022-07-25T00:25:44.620Z,9.50
2022-07-25T00:27:46.491Z,12.60
2022-07-25T00:29:48.486Z,8.40
2022-07-25T00:33:51.937Z,7.40
2022-07-25T00:35:53.637Z,9.00
2022-07-25T00:37:55.385Z,10.80
2022-07-25T00:39:57.042Z,13.00
2022-07-25T00:41:58.838Z,9.10
2022-07-25T00:44:00.478Z,14.60
2022-07-25T00:46:02.400Z,9.90
2022-07-25T00:48:05.110Z,10.70
2022-07-25T00:50:07.433Z,12.90
2022-07-25T00:52:09.816Z,9.10
2022-07-25T00:54:11.693Z,9.70
2022-07-25T00:56:13.412Z,11.10
2022-07-25T00:58:16.352Z,18.30
2022-07-25T01:00:18.455Z,12.10
2022-07-25T01:02:20.218Z,10.80
2022-07-25T01:04:21.989Z,13.20
2022-07-25T01:06:24.790Z,11.00
2022-07-25T01:08:27.059Z,13.20
2022-07-25T01:10:31.328Z,13.10
2022-07-25T01:12:33.099Z,13.80
2022-07-25T01:14:34.756Z,9.50
2022-07-25T01:16:36.422Z,13.90
2022-07-25T01:18:38.507Z,17.80
2022-07-25T01:22:41.899Z,13.40
2022-07-25T01:24:43.638Z,11.40
2022-07-25T01:26:45.357Z,11.00
2022-07-25T01:28:47.035Z,10.10
2022-07-25T01:30:48.855Z,11.50
2022-07-25T01:32:51.114Z,13.80
2022-07-25T01:34:52.846Z,15.60
2022-07-25T01:36:54.845Z,18.10
2022-07-25T01:40:58.103Z,12.90
2022-07-25T01:42:59.983Z,8.90
2022-07-25T01:45:02.179Z,13.90
2022-07-25T01:47:06.046Z,14.00
2022-07-25T01:49:08.579Z,15.00
2022-07-25T01:55:14.358Z,10.00
2022-07-25T01:59:18.561Z,13.20
2022-07-25T02:01:21.808Z,13.60
2022-07-25T02:03:32.718Z,11.00
2022-07-25T02:05:34.388Z,13.50
2022-07-25T02:07:36.251Z,11.30
2022-07-25T02:09:37.972Z,12.60
2022-07-25T02:11:39.641Z,16.70
2022-07-25T02:13:41.355Z,8.20
2022-07-25T02:15:43.065Z,11.40
2022-07-25T02:17:44.746Z,14.40
2022-07-25T02:19:47.615Z,18.20
2022-07-25T02:21:49.303Z,16.60
2022-07-25T02:23:50.962Z,15.10
2022-07-25T02:25:52.722Z,8.70
2022-07-25T02:27:54.537Z,12.80
2022-07-25T02:29:56.211Z,15.30
2022-07-25T02:31:58.162Z,19.30
2022-07-25T02:34:00.271Z,13.00
2022-07-25T02:38:03.768Z,13.20
2022-07-25T02:42:26.046Z,9.50
2022-07-25T02:44:27.717Z,16.10
2022-07-25T02:46:32.336Z,13.60
2022-07-25T02:48:34.121Z,14.70
2022-07-25T02:50:36.265Z,9.40
2022-07-25T02:52:37.994Z,10.30
2022-07-25T02:54:39.652Z,11.30
2022-07-25T02:56:41.340Z,14.50
2022-07-25T02:58:43.043Z,11.50
2022-07-25T03:00:44.734Z,11.10
2022-07-25T03:02:46.461Z,10.40
2022-07-25T03:04:48.170Z,12.10
2022-07-25T03:06:49.825Z,13.30
2022-07-25T03:08:51.502Z,11.50
2022-07-25T03:10:53.731Z,11.80
2022-07-25T03:12:55.402Z,11.50
2022-07-25T03:14:57.104Z,13.30
2022-07-25T03:16:58.824Z,12.60
2022-07-25T03:19:00.555Z,12.30
2022-07-25T03:21:02.242Z,12.10
2022-07-25T03:23:03.922Z,13.60
2022-07-25T03:25:06.046Z,13.50
2022-07-25T03:27:17.430Z,15.20
2022-07-25T03:29:19.235Z,10.60
2022-07-25T03:31:20.932Z,12.50
2022-07-25T03:33:22.744Z,10.10
2022-07-25T03:35:26.137Z,17.00
2022-07-25T03:37:27.794Z,12.60
2022-07-25T03:39:29.621Z,10.30
2022-07-25T03:41:31.365Z,11.50
2022-07-25T03:43:33.169Z,17.60
2022-07-25T03:45:35.063Z,14.60
2022-07-25T03:47:36.798Z,11.30
2022-07-25T03:49:45.078Z,10.40
2022-07-25T03:51:46.886Z,12.60
2022-07-25T03:54:04.064Z,11.40
2022-07-25T03:56:06.294Z,12.20
2022-07-25T03:58:08.817Z,13.00
2022-07-25T04:00:12.528Z,12.80
2022-07-25T04:02:14.386Z,10.40
2022-07-25T04:04:16.895Z,20.10
2022-07-25T04:06:18.839Z,9.30
2022-07-25T04:08:21.593Z,11.10
2022-07-25T04:10:23.320Z,11.50
2022-07-25T04:12:24.989Z,11.80
2022-07-25T04:14:26.712Z,12.50
2022-07-25T04:16:28.980Z,10.90
2022-07-25T04:18:31.373Z,15.90
2022-07-25T04:20:37.522Z,10.90
2022-07-25T04:22:43.437Z,9.00
2022-07-25T04:24:48.125Z,11.10
2022-07-25T04:26:49.784Z,9.30
2022-07-25T04:30:53.553Z,12.20
2022-07-25T04:32:55.236Z,10.20
2022-07-25T04:34:56.979Z,11.00
2022-07-25T04:36:58.628Z,19.10
2022-07-25T04:39:00.310Z,8.30
2022-07-25T04:41:02.093Z,8.40
2022-07-25T04:43:04.657Z,10.60
2022-07-25T04:45:06.821Z,10.40
2022-07-25T04:47:08.533Z,10.00
2022-07-25T04:49:10.301Z,8.10
2022-07-25T04:51:12.140Z,11.20
2022-07-25T04:53:13.900Z,11.50
2022-07-25T04:55:16.744Z,10.50
2022-07-25T04:57:18.576Z,6.80
2022-07-25T04:59:20.397Z,9.90
2022-07-25T05:01:22.105Z,8.90
2022-07-25T05:03:23.849Z,10.10
2022-07-25T05:05:25.901Z,9.80
2022-07-25T05:09:29.548Z,11.00
2022-07-25T05:13:32.838Z,10.80
2022-07-25T05:15:34.829Z,11.10
2022-07-25T05:17:36.603Z,12.70
2022-07-25T05:19:38.475Z,14.80
2022-07-25T05:21:40.136Z,7.20
2022-07-25T05:23:41.834Z,10.80
2022-07-25T05:25:43.651Z,8.00
2022-07-25T05:27:45.566Z,11.10
2022-07-25T05:29:47.345Z,6.80
2022-07-25T05:31:49.154Z,9.20
2022-07-25T05:33:50.884Z,11.20
2022-07-25T05:35:52.925Z,8.20
2022-07-25T05:39:56.300Z,10.10
2022-07-25T05:41:57.998Z,8.10
2022-07-25T05:43:59.692Z,10.70
2022-07-25T05:46:02.589Z,8.40
2022-07-25T05:48:04.587Z,10.10
2022-07-25T05:52:12.599Z,8.30
2022-07-25T05:54:14.931Z,10.90
2022-07-25T05:56:16.589Z,8.90
2022-07-25T05:58:18.241Z,8.20
2022-07-25T06:00:19.981Z,9.90
2022-07-25T06:02:21.743Z,8.20
2022-07-25T06:04:27.175Z,6.80
2022-07-25T06:06:32.724Z,7.00
2022-07-25T06:08:35.604Z,9.60
2022-07-25T06:10:39.222Z,9.00
2022-07-25T06:12:41.725Z,9.40
2022-07-25T06:14:44.580Z,7.80
2022-07-25T06:18:48.429Z,7.80
2022-07-25T06:20:50.147Z,5.90
2022-07-25T06:22:51.842Z,7.60
2022-07-25T06:24:53.541Z,9.00
2022-07-25T06:26:55.229Z,9.30
2022-07-25T06:28:56.962Z,5.90
2022-07-25T06:30:58.684Z,8.20
2022-07-25T06:33:00.603Z,8.40
2022-07-25T06:35:02.294Z,8.30
2022-07-25T06:38:10.338Z,9.90
2022-07-25T06:40:12.340Z,9.70
2022-07-25T06:44:15.637Z,5.40
2022-07-25T06:46:17.348Z,8.70
2022-07-25T06:48:19.145Z,3.90
2022-07-25T06:50:21.091Z,6.20
2022-07-25T06:52:23.107Z,7.90
2022-07-25T06:54:24.771Z,5.80
2022-07-25T06:56:28.088Z,3.80
2022-07-25T06:58:29.892Z,4.50
2022-07-25T07:00:33.079Z,3.00
2022-07-25T07:02:34.793Z,8.00
2022-07-25T07:04:36.467Z,3.70
2022-07-25T07:06:39.906Z,7.30
2022-07-25T07:08:41.619Z,6.50
2022-07-25T07:10:43.865Z,1.90
2022-07-25T07:12:45.673Z,4.30
2022-07-25T07:14:47.978Z,2.70
2022-07-25T07:16:49.635Z,2.70
2022-07-25T07:20:53.601Z,5.30
2022-07-25T07:22:55.376Z,5.80
2022-07-25T07:24:58.799Z,5.50
2022-07-25T07:27:00.449Z,4.10
2022-07-25T07:29:05.141Z,3.70
2022-07-25T07:31:16.459Z,2.80
2022-07-25T07:33:19.068Z,3.50
2022-07-25T07:35:20.881Z,3.80
2022-07-25T07:37:22.935Z,2.70
2022-07-25T07:39:24.636Z,7.10
2022-07-25T07:41:26.411Z,4.60
2022-07-25T07:43:31.914Z,2.20
2022-07-25T07:45:33.882Z,4.20
2022-07-25T07:47:35.546Z,4.40
2022-07-25T07:49:37.384Z,3.80
2022-07-25T07:51:39.119Z,1.10
2022-07-25T07:53:59.461Z,5.40
2022-07-25T07:56:01.147Z,1.90
2022-07-25T07:58:03.062Z,1.90
2022-07-25T08:02:07.105Z,4.10
2022-07-25T08:06:10.486Z,2.60
2022-07-25T08:08:14.023Z,5.10
2022-07-25T08:10:15.723Z,1.50
2022-07-25T08:12:17.356Z,5.60
2022-07-25T08:14:19.248Z,1.30
2022-07-25T08:18:22.712Z,1.90
2022-07-25T08:20:39.675Z,1.70
2022-07-25T08:22:45.192Z,3.50
2022-07-25T08:24:46.902Z,6.50
2022-07-25T08:26:48.618Z,4.70
2022-07-25T08:29:04.865Z,1.90
2022-07-25T08:31:11.954Z,3.90
2022-07-25T08:33:16.394Z,3.90
2022-07-25T08:35:19.280Z,2.60
2022-07-25T08:37:21.045Z,3.50
2022-07-25T08:39:22.770Z,5.00
2022-07-25T08:41:24.924Z,3.60
2022-07-25T08:43:27.194Z,3.30
2022-07-25T08:45:29.377Z,1.20
2022-07-25T08:47:31.174Z,2.30
2022-07-25T08:49:32.972Z,3.00
2022-07-25T08:51:34.913Z,1.90
2022-07-25T08:53:37.223Z,4.30
2022-07-25T08:55:39.496Z,4.20
2022-07-25T08:57:43.924Z,2.20
2022-07-25T08:59:45.728Z,3.90
2022-07-25T09:01:47.497Z,4.20
2022-07-25T09:03:49.229Z,1.70
2022-07-25T09:05:53.653Z,1.80
2022-07-25T09:07:56.404Z,5.00
2022-07-25T09:09:58.785Z,3.30
2022-07-25T09:12:00.854Z,2.40
2022-07-25T09:14:05.160Z,1.70
2022-07-25T09:16:07.842Z,6.10
2022-07-25T09:18:15.952Z,1.70
2022-07-25T09:20:19.507Z,4.50
2022-07-25T09:22:21.308Z,3.80
2022-07-25T09:24:22.966Z,3.80
2022-07-25T09:26:25.616Z,3.90
2022-07-25T09:28:29.567Z,3.60
2022-07-25T09:30:31.311Z,5.40
2022-07-25T09:32:35.948Z,5.70
2022-07-25T09:34:40.008Z,2.80
2022-07-25T09:36:55.073Z,3.80
2022-07-25T09:39:00.905Z,2.70
2022-07-25T09:41:02.715Z,3.20
2022-07-25T09:45:12.525Z,3.50
2022-07-25T09:47:16.456Z,1.90
2022-07-25T09:49:19.333Z,4.40
2022-07-25T09:51:21.571Z,3.20
2022-07-25T09:53:24.567Z,3.60
2022-07-25T09:55:27.003Z,3.10
2022-07-25T09:57:28.685Z,1.80
2022-07-25T09:59:30.356Z,3.70
2022-07-25T10:01:38.123Z,2.40
2022-07-25T10:03:52.885Z,3.20
2022-07-25T10:06:15.443Z,2.00
2022-07-25T10:08:18.653Z,3.50
2022-07-25T10:10:43.664Z,3.20
2022-07-25T10:13:11.057Z,3.30
2022-07-25T10:15:13.814Z,4.20
2022-07-25T10:17:21.664Z,2.60
2022-07-25T10:19:50.216Z,2.20
2022-07-25T10:21:55.885Z,1.70
2022-07-25T10:24:03.559Z,3.00
2022-07-25T10:26:19.627Z,1.80
2022-07-25T10:28:21.314Z,3.00
2022-07-25T10:30:28.210Z,0.80
2022-07-25T10:32:35.336Z,1.80
2022-07-25T10:34:37.999Z,2.20
2022-07-25T10:36:51.175Z,1.30
2022-07-25T10:38:57.382Z,3.50
2022-07-25T10:41:02.227Z,1.70
2022-07-25T10:43:27.077Z,5.30
2022-07-25T10:45:58.076Z,5.30
2022-07-25T10:48:07.189Z,1.80
2022-07-25T10:50:25.510Z,5.20
2022-07-25T10:52:41.283Z,3.20
2022-07-25T10:54:53.186Z,2.20
2022-07-25T10:56:59.918Z,2.00
2022-07-25T10:59:02.480Z,3.90
2022-07-25T11:01:05.441Z,2.90
2022-07-25T11:03:07.191Z,2.50
2022-07-25T11:05:09.276Z,0.70
2022-07-25T11:07:17.684Z,1.70
2022-07-25T11:09:28.105Z,3.00
2022-07-25T11:11:34.729Z,2.00
2022-07-25T11:13:42.750Z,2.30
2022-07-25T11:15:44.683Z,2.90
2022-07-25T11:17:53.379Z,2.30
2022-07-25T11:20:02.594Z,2.10
2022-07-25T11:22:07.195Z,1.40
2022-07-25T11:24:08.913Z,1.50
2022-07-25T11:28:13.210Z,2.90
2022-07-25T11:32:21.324Z,4.20
2022-07-25T11:36:26.301Z,2.10
2022-07-25T11:40:30.909Z,3.80
2022-07-25T11:42:48.081Z,2.40
2022-07-25T11:44:54.553Z,2.70
2022-07-25T11:46:56.381Z,2.30
2022-07-25T11:51:16.232Z,2.50
2022-07-25T11:53:20.330Z,2.80
2022-07-25T11:55:28.794Z,5.30
2022-07-25T11:57:34.063Z,2.00
2022-07-25T11:59:46.086Z,1.50
2022-07-25T12:01:48.430Z,1.00
2022-07-25T12:03:51.176Z,2.00
2022-07-25T12:05:52.999Z,3.70
2022-07-25T12:09:57.590Z,2.80
2022-07-25T12:12:04.493Z,2.90
2022-07-25T12:14:06.769Z,3.20
2022-07-25T12:16:08.891Z,1.00
2022-07-25T12:18:12.525Z,0.70
2022-07-25T12:20:17.138Z,1.70
2022-07-25T12:22:18.856Z,2.00
2022-07-25T12:24:20.531Z,2.60
2022-07-25T12:26:22.240Z,1.80
2022-07-25T12:28:23.931Z,2.10
2022-07-25T12:30:27.612Z,2.80
2022-07-25T12:32:29.566Z,1.60
2022-07-25T12:34:31.468Z,2.00
2022-07-25T12:36:34.680Z,2.90
2022-07-25T12:38:37.184Z,1.10
2022-07-25T12:40:39.098Z,1.80
2022-07-25T12:42:41.020Z,2.10
2022-07-25T12:44:42.902Z,2.20
2022-07-25T12:46:49.321Z,2.40
2022-07-25T12:48:51.448Z,2.30
2022-07-25T12:50:53.198Z,2.40
2022-07-25T12:52:55.296Z,2.60
2022-07-25T12:54:57.056Z,1.50
2022-07-25T12:56:58.786Z,2.60
2022-07-25T12:59:01.833Z,3.00
2022-07-25T13:01:05.868Z,2.30
2022-07-25T13:03:07.703Z,2.10
2022-07-25T13:05:10.254Z,4.10
2022-07-25T13:07:13.451Z,4.70
2022-07-25T13:09:15.237Z,1.70
2022-07-25T13:11:16.971Z,0.90
2022-07-25T13:15:22.384Z,1.40
2022-07-25T13:17:27.563Z,2.50
2022-07-25T13:19:29.641Z,2.10
2022-07-25T13:23:33.567Z,1.90
2022-07-25T13:27:38.553Z,4.70
2022-07-25T13:29:40.253Z,1.10
2022-07-25T13:31:42.987Z,3.50
2022-07-25T13:33:45.152Z,1.00
2022-07-25T13:35:47.080Z,2.50
2022-07-25T13:37:48.837Z,1.40
2022-07-25T13:39:52.720Z,1.90
2022-07-25T13:41:54.506Z,3.40
2022-07-25T13:43:56.634Z,1.30
2022-07-25T13:45:58.534Z,2.20
2022-07-25T13:48:27.941Z,1.20
2022-07-25T13:52:23.739Z,1.50
2022-07-25T13:54:25.414Z,4.20
2022-07-25T13:56:27.362Z,2.40
2022-07-25T13:58:29.121Z,3.40
2022-07-25T14:00:30.818Z,2.50
2022-07-25T14:02:32.567Z,2.00
2022-07-25T14:04:34.714Z,3.10
2022-07-25T14:06:36.422Z,4.70
2022-07-25T14:08:40.355Z,3.00
2022-07-25T14:10:42.053Z,4.00
2022-07-25T14:12:44.417Z,1.50
2022-07-25T14:14:46.068Z,2.30
2022-07-25T14:16:48.932Z,2.60
2022-07-25T14:18:50.884Z,1.40
2022-07-25T14:20:52.561Z,1.60
2022-07-25T14:22:54.276Z,4.70
2022-07-25T14:24:56.014Z,1.50
2022-07-25T14:26:58.399Z,1.60
2022-07-25T14:29:00.452Z,4.00
2022-07-25T14:31:02.197Z,1.90
2022-07-25T14:33:04.803Z,3.90
2022-07-25T14:35:07.457Z,2.90
2022-07-25T14:37:09.188Z,1.10
2022-07-25T14:39:11.019Z,1.90
2022-07-25T14:41:13.438Z,1.40
2022-07-25T14:43:15.179Z,2.00
2022-07-25T14:47:23.650Z,1.90
2022-07-25T14:49:29.191Z,1.50
2022-07-25T14:51:30.966Z,1.20
2022-07-25T14:55:36.952Z,2.70
2022-07-25T14:57:38.615Z,4.70
2022-07-25T15:01:41.825Z,5.60
2022-07-25T15:05:45.087Z,2.60
2022-07-25T15:09:48.740Z,1.70
2022-07-25T15:13:53.178Z,1.40
2022-07-25T15:15:56.163Z,1.80
2022-07-25T15:17:57.971Z,3.20
2022-07-25T15:22:02.158Z,1.90
2022-07-25T15:24:04.774Z,2.40
2022-07-25T15:26:06.551Z,4.20
2022-07-25T15:30:10.955Z,1.10
2022-07-25T15:32:12.648Z,2.00
2022-07-25T15:34:14.583Z,2.60
2022-07-25T15:36:16.331Z,2.20
2022-07-25T15:38:18.757Z,3.30
2022-07-25T15:40:20.566Z,1.40
2022-07-25T15:44:32.641Z,2.00
2022-07-25T15:46:34.443Z,2.20
2022-07-25T15:50:39.530Z,7.30
2022-07-25T15:52:41.230Z,2.30
2022-07-25T15:54:42.892Z,3.80
2022-07-25T15:56:45.664Z,1.60
2022-07-25T15:58:49.416Z,2.50
2022-07-25T16:00:51.169Z,2.20
2022-07-25T16:04:54.480Z,2.70
2022-07-25T16:08:57.774Z,1.70
2022-07-25T16:13:03.132Z,1.10
2022-07-25T16:15:06.437Z,0.90
2022-07-25T16:17:08.111Z,3.60
2022-07-25T16:21:12.351Z,1.60
2022-07-25T16:23:14.154Z,0.80
2022-07-25T16:25:16.131Z,1.70
2022-07-25T16:27:17.980Z,2.80
2022-07-25T16:29:19.958Z,0.60
2022-07-25T16:35:25.391Z,2.90
2022-07-25T16:39:29.750Z,2.20
2022-07-25T16:41:31.398Z,1.00
2022-07-25T16:45:36.246Z,1.20
2022-07-25T16:47:40.115Z,1.60
2022-07-25T16:49:41.833Z,2.40
2022-07-25T16:53:46.731Z,0.90
2022-07-25T16:57:49.995Z,1.70
2022-07-25T17:01:55.067Z,2.40
2022-07-25T17:03:56.886Z,1.80
2022-07-25T17:05:58.619Z,1.80
2022-07-25T17:08:00.298Z,2.10
2022-07-25T17:10:01.953Z,3.90
2022-07-25T17:12:03.862Z,2.20
2022-07-25T17:14:05.560Z,3.50
2022-07-25T17:16:07.608Z,1.40
2022-07-25T17:18:09.535Z,3.90
2022-07-25T17:20:11.680Z,3.70
2022-07-25T17:22:13.468Z,1.50
2022-07-25T17:24:15.137Z,1.90
2022-07-25T17:26:16.840Z,1.90
2022-07-25T17:28:18.492Z,2.30
2022-07-25T17:30:20.267Z,1.60
2022-07-25T17:32:25.119Z,2.10
2022-07-25T17:34:31.151Z,4.50
2022-07-25T17:36:32.823Z,1.40
2022-07-25T17:38:35.281Z,3.60
2022-07-25T17:40:37.148Z,3.60
2022-07-25T17:42:44.911Z,5.60
2022-07-25T17:44:47.368Z,4.00
2022-07-25T17:46:50.461Z,2.70
2022-07-25T17:48:52.746Z,5.20
2022-07-25T17:50:55.702Z,3.60
2022-07-25T17:52:59.629Z,2.80
2022-07-25T17:55:01.638Z,4.60
2022-07-25T17:57:03.620Z,1.50
2022-07-25T17:59:05.377Z,3.70
2022-07-25T18:01:10.436Z,4.30
2022-07-25T18:03:12.601Z,3.10
2022-07-25T18:05:14.764Z,1.90
2022-07-25T18:07:16.520Z,4.40
2022-07-25T18:11:19.869Z,2.30
2022-07-25T18:17:25.660Z,4.00
2022-07-25T18:21:30.315Z,3.10
2022-07-25T18:23:32.225Z,3.40
2022-07-25T18:25:34.078Z,3.20
2022-07-25T18:29:38.513Z,1.80
2022-07-25T18:31:40.403Z,1.00
2022-07-25T18:33:42.152Z,2.20
2022-07-25T18:35:44.096Z,4.60
2022-07-25T18:39:47.670Z,3.10
2022-07-25T18:41:49.370Z,3.00
2022-07-25T18:43:52.952Z,1.70
2022-07-25T18:45:54.901Z,2.10
2022-07-25T18:49:58.437Z,2.00
2022-07-25T18:54:01.715Z,2.30
2022-07-25T18:56:05.670Z,4.00
2022-07-25T18:58:09.084Z,3.50
2022-07-25T19:00:11.120Z,2.70
2022-07-25T19:02:12.975Z,3.20
2022-07-25T19:08:18.812Z,3.70
2022-07-25T19:10:20.797Z,2.80
2022-07-25T19:14:28.957Z,2.00
2022-07-25T19:16:33.145Z,2.20
2022-07-25T19:18:37.943Z,5.20
2022-07-25T19:20:40.791Z,2.50
2022-07-25T19:22:42.652Z,2.60
2022-07-25T19:24:44.933Z,2.60
2022-07-25T19:26:48.097Z,4.20
2022-07-25T19:28:51.242Z,3.50
2022-07-25T19:30:53.192Z,1.50
2022-07-25T19:34:56.588Z,1.70
2022-07-25T19:36:58.395Z,0.70
2022-07-25T19:39:00.517Z,1.30
2022-07-25T19:41:02.349Z,0.70
2022-07-25T19:43:04.628Z,1.20
2022-07-25T19:45:07.108Z,2.40
2022-07-25T19:47:11.861Z,0.60
2022-07-25T19:49:13.891Z,1.90
2022-07-25T19:51:15.619Z,1.70
2022-07-25T19:53:17.342Z,1.40
2022-07-25T19:55:19.100Z,0.60
2022-07-25T19:57:20.761Z,5.40
2022-07-25T19:59:22.462Z,2.30
2022-07-25T20:01:24.314Z,0.90
2022-07-25T20:03:26.096Z,0.90
2022-07-25T20:05:27.874Z,1.00
2022-07-25T20:08:24.577Z,1.30
2022-07-25T20:10:26.282Z,0.80
2022-07-25T20:12:27.971Z,1.10
2022-07-25T20:14:29.692Z,0.80
2022-07-25T20:16:31.693Z,0.70
2022-07-25T20:18:33.537Z,2.10
2022-07-25T20:20:35.363Z,0.60
2022-07-25T20:22:41.840Z,0.50
2022-07-25T20:24:44.677Z,1.60
2022-07-25T20:26:47.083Z,1.20
2022-07-25T20:28:48.754Z,0.60
2022-07-25T20:30:50.936Z,1.70
2022-07-25T20:32:52.842Z,1.70
2022-07-25T20:34:54.516Z,0.60
2022-07-25T20:36:56.212Z,0.40
2022-07-25T20:38:57.866Z,0.60
2022-07-25T20:41:00.583Z,0.50
2022-07-25T20:43:04.061Z,0.90
2022-07-25T20:45:06.405Z,0.70
2022-07-25T20:47:08.455Z,3.70
2022-07-25T20:51:32.542Z,5.30
2022-07-25T20:53:34.226Z,1.00
2022-07-25T20:55:36.023Z,0.60
2022-07-25T20:57:37.697Z,0.50
2022-07-25T20:59:39.654Z,1.00
2022-07-25T21:03:43.051Z,0.80
2022-07-25T21:05:44.775Z,1.10
2022-07-25T21:11:37.456Z,1.00
2022-07-25T21:13:39.150Z,1.10
2022-07-25T21:15:41.112Z,0.90
2022-07-25T21:17:42.805Z,0.70
2022-07-25T21:19:44.455Z,3.10
2022-07-25T21:21:46.346Z,0.40
2022-07-25T21:23:48.033Z,0.40
2022-07-25T21:25:49.894Z,1.50
2022-07-25T21:27:51.667Z,0.40
2022-07-25T21:29:53.340Z,0.50
2022-07-25T21:31:55.133Z,0.70
2022-07-25T21:33:56.891Z,0.70
2022-07-25T21:35:58.603Z,1.20
2022-07-25T21:38:00.369Z,1.70
2022-07-25T21:40:02.349Z,0.50
2022-07-25T21:42:05.179Z,1.10
2022-07-25T21:44:06.978Z,1.00
2022-07-25T21:46:08.783Z,2.60
2022-07-25T21:48:10.829Z,1.40
2022-07-25T21:52:35.145Z,0.80
2022-07-25T21:54:36.986Z,0.80
2022-07-25T21:56:39.288Z,1.90
2022-07-25T21:58:41.549Z,0.90
2022-07-25T22:02:24.941Z,0.70
2022-07-25T22:04:26.032Z,1.20
2022-07-25T22:06:27.031Z,0.50
2022-07-25T22:08:29.177Z,1.00
2022-07-25T22:10:30.461Z,1.10
2022-07-25T22:12:31.429Z,0.70
2022-07-25T22:14:32.500Z,1.00
2022-07-25T22:16:33.691Z,2.30
2022-07-25T22:18:34.761Z,1.40
2022-07-25T22:20:35.964Z,1.20
2022-07-25T22:22:36.963Z,1.10
2022-07-25T22:24:40.841Z,2.50
2022-07-25T22:26:44.223Z,2.00
2022-07-25T22:28:46.096Z,2.50
2022-07-25T22:30:47.600Z,0.60
2022-07-25T22:32:50.770Z,4.10
2022-07-25T22:34:51.760Z,2.60
2022-07-25T22:36:52.773Z,1.60
2022-07-25T22:38:53.778Z,0.90
2022-07-25T22:40:54.770Z,0.60
2022-07-25T22:42:55.746Z,1.00
2022-07-25T22:44:56.983Z,1.90
2022-07-25T22:46:57.956Z,1.90
2022-07-25T22:48:59.476Z,1.30
2022-07-25T22:51:00.555Z,3.90
2022-07-25T22:53:01.548Z,1.70
2022-07-25T22:55:03.268Z,1.80
2022-07-25T22:57:04.265Z,2.90
2022-07-25T22:59:05.642Z,2.00
2022-07-25T23:01:07.303Z,1.80
2022-07-25T23:03:09.085Z,1.00
2022-07-25T23:05:10.259Z,2.30
2022-07-25T23:07:11.229Z,0.70
2022-07-25T23:09:15.151Z,1.20
2022-07-25T23:11:16.576Z,2.40
2022-07-25T23:13:18.200Z,2.10
2022-07-25T23:15:19.189Z,2.90
2022-07-25T23:17:20.658Z,2.50
2022-07-25T23:19:22.053Z,2.20
2022-07-25T23:21:24.025Z,1.20
2022-07-25T23:23:25.120Z,2.80
2022-07-25T23:25:26.152Z,1.00
2022-07-25T23:27:27.193Z,1.80
2022-07-25T23:29:28.172Z,1.90
2022-07-25T23:31:29.240Z,4.20
2022-07-25T23:33:30.396Z,4.40
2022-07-25T23:35:31.472Z,0.70
2022-07-25T23:37:32.455Z,2.30
2022-07-25T23:39:33.466Z,1.70
2022-07-25T23:41:34.502Z,1.90
2022-07-25T23:43:55.857Z,5.40
2022-07-25T23:49:34.096Z,2.50
2022-07-25T23:51:35.825Z,2.60
2022-07-25T23:53:36.930Z,3.50
2022-07-25T23:55:37.942Z,1.80
2022-07-25T23:57:39.006Z,3.60
2022-07-25T23:59:40.047Z,4.30
